createdAt,value
2022-09-28T00:01:51.667Z,101476.59
2022-09-28T00:04:22.458Z,101483.50
2022-09-28T00:06:52.701Z,101493.94
2022-09-28T00:09:23.310Z,101488.41
2022-09-28T00:11:57.371Z,101498.78
2022-09-28T00:14:28.784Z,101495.94
2022-09-28T00:16:59.120Z,101501.06
2022-09-28T00:19:29.684Z,101502.88
2022-09-28T00:21:59.304Z,101504.19
2022-09-28T00:24:29.971Z,101481.22
2022-09-28T00:27:05.162Z,101505.59
2022-09-28T00:29:38.067Z,101501.72
2022-09-28T00:32:12.802Z,101509.28
2022-09-28T00:34:47.198Z,101505.06
2022-09-28T00:37:17.420Z,101505.94
2022-09-28T00:39:49.987Z,101509.63
2022-09-28T00:42:26.050Z,101516.84
2022-09-28T00:44:57.807Z,101523.84
2022-09-28T00:47:33.704Z,101526.00
2022-09-28T00:50:20.130Z,101528.03
2022-09-28T00:53:11.595Z,101530.22
2022-09-28T00:55:47.120Z,101536.84
2022-09-28T00:58:22.824Z,101532.69
2022-09-28T01:00:57.538Z,101538.22
2022-09-28T01:03:29.911Z,101528.38
2022-09-28T01:06:05.208Z,101541.19
2022-09-28T01:08:36.751Z,101550.19
2022-09-28T01:11:07.441Z,101529.47
2022-09-28T01:13:37.704Z,101544.47
2022-09-28T01:16:35.973Z,101547.38
2022-09-28T01:19:48.138Z,101541.22
2022-09-28T01:22:55.044Z,101541.41
2022-09-28T01:26:02.103Z,101543.78
2022-09-28T01:28:33.949Z,101530.75
2022-09-28T01:31:28.470Z,101552.88
2022-09-28T01:34:17.375Z,101550.47
2022-09-28T01:36:55.866Z,101549.63
2022-09-28T01:39:34.246Z,101559.28
2022-09-28T01:42:16.038Z,101561.31
2022-09-28T01:44:51.682Z,101565.13
2022-09-28T01:47:26.014Z,101561.47
2022-09-28T01:50:19.133Z,101574.59
2022-09-28T01:52:56.735Z,101568.72
2022-09-28T01:55:45.615Z,101574.25
2022-09-28T01:58:21.913Z,101578.34
2022-09-28T02:01:03.449Z,101582.63
2022-09-28T02:04:02.140Z,101586.31
2022-09-28T02:06:54.937Z,101591.13
2022-09-28T02:09:37.476Z,101588.53
2022-09-28T02:12:14.939Z,101585.59
2022-09-28T02:14:48.573Z,101596.31
2022-09-28T02:17:19.012Z,101593.75
2022-09-28T02:19:50.447Z,101590.59
2022-09-28T02:22:31.382Z,101592.78
2022-09-28T02:25:10.756Z,101593.75
2022-09-28T02:28:01.064Z,101578.09
2022-09-28T02:30:33.490Z,101601.84
2022-09-28T02:33:12.330Z,101583.34
2022-09-28T02:35:46.693Z,101596.94
2022-09-28T02:38:17.359Z,101588.75
2022-09-28T02:41:05.917Z,101596.09
2022-09-28T02:44:03.683Z,101587.34
2022-09-28T02:46:44.626Z,101586.78
2022-09-28T02:49:43.681Z,101593.94
2022-09-28T02:52:32.399Z,101600.19
2022-09-28T02:55:26.534Z,101597.88
2022-09-28T02:58:05.830Z,101597.88
2022-09-28T03:00:45.115Z,101601.47
2022-09-28T03:03:25.395Z,101601.97
2022-09-28T03:06:05.226Z,101611.47
2022-09-28T03:08:53.795Z,101609.34
2022-09-28T03:11:49.629Z,101600.47
2022-09-28T03:14:21.039Z,101590.31
2022-09-28T03:16:57.467Z,101595.63
2022-09-28T03:19:34.498Z,101600.53
2022-09-28T03:22:05.398Z,101609.66
2022-09-28T03:24:36.005Z,101601.75
2022-09-28T03:27:06.246Z,101607.63
2022-09-28T03:29:37.026Z,101608.09
2022-09-28T03:32:09.335Z,101614.25
2022-09-28T03:34:39.867Z,101612.19
2022-09-28T03:37:10.107Z,101621.97
2022-09-28T03:39:40.775Z,101623.56
2022-09-28T03:42:11.041Z,101628.88
2022-09-28T03:44:47.139Z,101626.88
2022-09-28T03:47:19.208Z,101627.75
2022-09-28T03:49:49.770Z,101622.00
2022-09-28T03:52:19.911Z,101625.03
2022-09-28T03:54:50.449Z,101616.09
2022-09-28T03:57:20.630Z,101603.78
2022-09-28T03:59:51.879Z,101612.38
2022-09-28T04:02:22.054Z,101615.94
2022-09-28T04:04:52.618Z,101623.69
2022-09-28T04:07:23.117Z,101627.50
2022-09-28T04:09:54.271Z,101622.66
2022-09-28T04:12:24.501Z,101629.47
2022-09-28T04:14:55.127Z,101636.91
2022-09-28T04:17:26.198Z,101638.53
2022-09-28T04:19:57.351Z,101616.84
2022-09-28T04:22:42.874Z,101622.09
2022-09-28T04:25:13.500Z,101621.44
2022-09-28T04:28:09.698Z,101605.56
2022-09-28T04:30:40.710Z,101600.50
2022-09-28T04:33:11.789Z,101605.28
2022-09-28T04:35:42.343Z,101603.03
2022-09-28T04:38:12.519Z,101599.44
2022-09-28T04:40:43.831Z,101595.00
2022-09-28T04:43:14.046Z,101589.22
2022-09-28T04:45:44.824Z,101577.97
2022-09-28T04:48:17.260Z,101577.97
2022-09-28T04:51:08.261Z,101596.38
2022-09-28T04:53:39.664Z,101585.00
2022-09-28T04:56:17.049Z,101578.59
2022-09-28T04:58:52.498Z,101566.25
2022-09-28T05:01:25.305Z,101555.19
2022-09-28T05:04:14.498Z,101553.13
2022-09-28T05:07:02.988Z,101550.34
2022-09-28T05:09:37.688Z,101549.72
2022-09-28T05:12:10.647Z,101541.56
2022-09-28T05:14:41.309Z,101547.31
2022-09-28T05:17:11.840Z,101541.53
2022-09-28T05:19:59.027Z,101546.56
2022-09-28T05:22:28.750Z,101551.59
2022-09-28T05:25:00.392Z,101559.09
2022-09-28T05:27:34.334Z,101553.97
2022-09-28T05:30:12.107Z,101555.59
2022-09-28T05:32:59.223Z,101564.31
2022-09-28T05:35:37.794Z,101569.22
2022-09-28T05:38:07.346Z,101558.69
2022-09-28T05:40:37.838Z,101552.75
2022-09-28T05:43:08.067Z,101543.75
2022-09-28T05:45:38.626Z,101554.84
2022-09-28T05:48:08.772Z,101552.97
2022-09-28T05:50:39.314Z,101555.22
2022-09-28T05:53:11.468Z,101555.38
2022-09-28T05:55:42.980Z,101553.72
2022-09-28T05:58:13.122Z,101552.72
2022-09-28T06:00:43.788Z,101564.66
2022-09-28T06:03:18.301Z,101574.81
2022-09-28T06:05:48.834Z,101576.59
2022-09-28T06:08:19.067Z,101571.91
2022-09-28T06:11:02.104Z,101559.53
2022-09-28T06:13:33.198Z,101570.94
2022-09-28T06:16:06.991Z,101565.38
2022-09-28T06:18:36.680Z,101561.34
2022-09-28T06:21:34.913Z,101565.25
2022-09-28T06:24:06.428Z,101569.53
2022-09-28T06:26:38.642Z,101573.91
2022-09-28T06:29:09.647Z,101561.47
2022-09-28T06:31:40.146Z,101566.69
2022-09-28T06:34:13.588Z,101561.44
2022-09-28T06:36:44.167Z,101534.53
2022-09-28T06:39:14.574Z,101556.78
2022-09-28T06:41:45.342Z,101548.13
2022-09-28T06:44:20.337Z,101548.03
2022-09-28T06:47:24.789Z,101549.50
2022-09-28T06:50:13.362Z,101547.22
2022-09-28T06:53:04.055Z,101533.63
2022-09-28T06:55:52.780Z,101545.00
2022-09-28T06:58:23.782Z,101531.22
2022-09-28T07:00:54.456Z,101556.28
2022-09-28T07:03:25.331Z,101557.78
2022-09-28T07:06:17.915Z,101549.47
2022-09-28T07:09:27.284Z,101555.59
2022-09-28T07:12:17.557Z,101554.28
2022-09-28T07:15:11.315Z,101552.81
2022-09-28T07:17:56.027Z,101553.97
2022-09-28T07:20:31.112Z,101559.03
2022-09-28T07:23:14.133Z,101552.13
2022-09-28T07:26:09.196Z,101557.75
2022-09-28T07:29:18.020Z,101563.78
2022-09-28T07:32:22.860Z,101566.88
2022-09-28T07:34:59.234Z,101578.16
2022-09-28T07:37:40.223Z,101591.72
2022-09-28T07:40:29.660Z,101582.19
2022-09-28T07:43:08.841Z,101575.59
2022-09-28T07:45:39.470Z,101573.84
2022-09-28T07:48:09.991Z,101564.53
2022-09-28T07:51:01.731Z,101572.94
2022-09-28T07:53:39.515Z,101586.50
2022-09-28T07:56:48.385Z,101584.50
2022-09-28T07:59:32.891Z,101588.28
2022-09-28T08:02:22.674Z,101581.56
2022-09-28T08:04:53.436Z,101599.38
2022-09-28T08:07:26.731Z,101610.28
2022-09-28T08:10:05.649Z,101613.81
2022-09-28T08:13:06.537Z,101622.91
2022-09-28T08:16:01.860Z,101620.56
2022-09-28T08:18:38.147Z,101604.78
2022-09-28T08:21:27.121Z,101609.94
2022-09-28T08:23:57.983Z,101606.41
2022-09-28T08:26:30.167Z,101618.41
2022-09-28T08:29:00.739Z,101622.63
2022-09-28T08:32:01.574Z,101622.94
2022-09-28T08:34:43.043Z,101631.16
2022-09-28T08:37:31.862Z,101638.91
2022-09-28T08:40:36.478Z,101650.63
2022-09-28T08:43:51.280Z,101643.88
2022-09-28T08:46:33.405Z,101640.03
2022-09-28T08:49:40.641Z,101637.81
2022-09-28T08:52:34.854Z,101645.09
2022-09-28T08:55:41.054Z,101651.47
2022-09-28T08:58:21.857Z,101661.06
2022-09-28T09:00:55.323Z,101652.22
2022-09-28T09:03:38.435Z,101674.97
2022-09-28T09:06:46.441Z,101669.31
2022-09-28T09:09:44.563Z,101667.44
2022-09-28T09:12:37.941Z,101677.22
2022-09-28T09:15:31.889Z,101682.16
2022-09-28T09:18:38.999Z,101697.34
2022-09-28T09:21:42.801Z,101706.59
2022-09-28T09:24:29.354Z,101710.53
2022-09-28T09:27:14.612Z,101703.66
2022-09-28T09:30:04.392Z,101706.81
2022-09-28T09:32:42.314Z,101721.75
2022-09-28T09:35:32.009Z,101723.94
2022-09-28T09:38:23.203Z,101739.41
2022-09-28T09:41:38.203Z,101731.63
2022-09-28T09:44:48.340Z,101727.53
2022-09-28T09:47:50.634Z,101721.25
2022-09-28T09:50:33.777Z,101722.22
2022-09-28T09:53:13.065Z,101729.19
2022-09-28T09:55:48.401Z,101742.03
2022-09-28T09:58:50.587Z,101735.13
2022-09-28T10:01:43.522Z,101743.94
2022-09-28T10:04:34.197Z,101758.66
2022-09-28T10:07:32.362Z,101775.16
2022-09-28T10:10:04.938Z,101769.94
2022-09-28T10:12:44.246Z,101772.56
2022-09-28T10:15:18.035Z,101781.78
2022-09-28T10:18:08.622Z,101788.72
2022-09-28T10:20:57.360Z,101783.97
2022-09-28T10:23:44.029Z,101787.94
2022-09-28T10:26:25.718Z,101795.81
2022-09-28T10:29:14.385Z,101799.72
2022-09-28T10:31:51.452Z,101798.16
2022-09-28T10:34:38.663Z,101804.50
2022-09-28T10:37:15.637Z,101810.00
2022-09-28T10:40:31.613Z,101808.88
2022-09-28T10:43:18.392Z,101807.53
2022-09-28T10:45:50.107Z,101820.31
2022-09-28T10:48:23.928Z,101812.03
2022-09-28T10:51:06.392Z,101817.00
2022-09-28T10:53:38.614Z,101805.50
2022-09-28T10:56:28.436Z,101820.28
2022-09-28T10:59:24.731Z,101831.13
2022-09-28T11:02:15.396Z,101833.34
2022-09-28T11:04:56.934Z,101817.25
2022-09-28T11:07:34.788Z,101840.66
2022-09-28T11:10:05.410Z,101817.09
2022-09-28T11:12:46.740Z,101841.41
2022-09-28T11:15:44.743Z,101834.13
2022-09-28T11:18:35.542Z,101830.63
2022-09-28T11:21:23.230Z,101830.69
2022-09-28T11:24:30.590Z,101826.34
2022-09-28T11:27:04.319Z,101832.47
2022-09-28T11:29:37.674Z,101835.09
2022-09-28T11:32:26.734Z,101834.06
2022-09-28T11:35:27.107Z,101834.03
2022-09-28T11:38:43.161Z,101839.91
2022-09-28T11:41:58.979Z,101829.63
2022-09-28T11:44:45.890Z,101845.53
2022-09-28T11:47:39.334Z,101845.97
2022-09-28T11:50:36.141Z,101854.63
2022-09-28T11:53:20.875Z,101843.75
2022-09-28T11:56:28.103Z,101836.78
2022-09-28T11:59:18.442Z,101844.16
2022-09-28T12:02:02.744Z,101818.28
2022-09-28T12:05:03.041Z,101835.00
2022-09-28T12:07:47.721Z,101826.75
2022-09-28T12:10:55.061Z,101830.41
2022-09-28T12:13:46.230Z,101846.22
2022-09-28T12:17:04.898Z,101836.81
2022-09-28T12:19:51.007Z,101838.75
2022-09-28T12:22:46.359Z,101835.81
2022-09-28T12:25:22.274Z,101838.47
2022-09-28T12:28:03.720Z,101840.25
2022-09-28T12:30:41.748Z,101825.31
2022-09-28T12:33:16.839Z,101836.78
2022-09-28T12:36:13.087Z,101828.50
2022-09-28T12:39:17.501Z,101834.88
2022-09-28T12:42:11.377Z,101839.94
2022-09-28T12:44:55.921Z,101835.44
2022-09-28T12:47:50.267Z,101837.75
2022-09-28T12:50:42.082Z,101850.03
2022-09-28T12:53:54.159Z,101849.50
2022-09-28T12:56:45.850Z,101850.38
2022-09-28T12:59:39.551Z,101845.00
2022-09-28T13:02:47.089Z,101846.00
2022-09-28T13:05:37.897Z,101836.25
2022-09-28T13:08:26.563Z,101838.19
2022-09-28T13:11:07.893Z,101847.75
2022-09-28T13:14:00.923Z,101832.59
2022-09-28T13:16:37.579Z,101838.19
2022-09-28T13:19:14.293Z,101838.06
2022-09-28T13:22:06.197Z,101825.81
2022-09-28T13:24:42.868Z,101817.25
2022-09-28T13:27:20.831Z,101819.22
2022-09-28T13:29:52.598Z,101811.69
2022-09-28T13:32:25.417Z,101813.97
2022-09-28T13:34:57.733Z,101817.31
2022-09-28T13:37:28.311Z,101810.47
2022-09-28T13:40:00.170Z,101811.84
2022-09-28T13:42:52.339Z,101806.34
2022-09-28T13:45:26.466Z,101803.94
2022-09-28T13:48:06.417Z,101810.25
2022-09-28T13:50:41.729Z,101825.88
2022-09-28T13:53:35.087Z,101823.94
2022-09-28T13:56:25.730Z,101822.34
2022-09-28T13:59:31.591Z,101828.84
2022-09-28T14:02:25.974Z,101812.69
2022-09-28T14:05:06.839Z,101801.69
2022-09-28T14:07:37.618Z,101813.00
2022-09-28T14:10:27.110Z,101819.06
2022-09-28T14:12:58.054Z,101798.50
2022-09-28T14:15:31.225Z,101809.34
2022-09-28T14:18:20.521Z,101812.31
2022-09-28T14:21:16.311Z,101815.47
2022-09-28T14:24:28.566Z,101804.53
2022-09-28T14:27:09.943Z,101801.69
2022-09-28T14:29:41.864Z,101822.94
2022-09-28T14:32:12.373Z,101827.72
2022-09-28T14:34:57.807Z,101820.44
2022-09-28T14:37:53.250Z,101818.72
2022-09-28T14:41:21.982Z,101826.34
2022-09-28T14:43:52.519Z,101820.06
2022-09-28T14:46:23.842Z,101822.03
2022-09-28T14:49:07.626Z,101825.97
2022-09-28T14:51:40.832Z,101819.25
2022-09-28T14:54:13.681Z,101821.00
2022-09-28T14:56:51.558Z,101812.16
2022-09-28T14:59:27.592Z,101820.97
2022-09-28T15:02:16.494Z,101821.66
2022-09-28T15:04:57.713Z,101823.16
2022-09-28T15:07:34.258Z,101819.97
2022-09-28T15:10:04.803Z,101816.00
2022-09-28T15:12:36.110Z,101816.00
2022-09-28T15:15:18.608Z,101815.72
2022-09-28T15:18:00.703Z,101805.44
2022-09-28T15:20:46.093Z,101819.03
2022-09-28T15:23:44.461Z,101803.38
2022-09-28T15:26:32.822Z,101803.34
2022-09-28T15:29:09.652Z,101798.63
2022-09-28T15:31:39.953Z,101792.88
2022-09-28T15:34:51.078Z,101797.09
2022-09-28T15:37:30.493Z,101766.31
2022-09-28T15:40:02.775Z,101785.72
2022-09-28T15:42:38.572Z,101776.81
2022-09-28T15:45:33.814Z,101779.38
2022-09-28T15:48:34.623Z,101789.38
2022-09-28T15:51:13.175Z,101773.34
2022-09-28T15:53:48.887Z,101778.78
2022-09-28T15:56:19.599Z,101780.00
2022-09-28T15:59:17.327Z,101776.38
2022-09-28T16:01:49.225Z,101768.50
2022-09-28T16:04:38.494Z,101764.00
2022-09-28T16:07:14.488Z,101759.13
2022-09-28T16:10:13.450Z,101761.84
2022-09-28T16:12:49.660Z,101757.75
2022-09-28T16:15:27.988Z,101760.19
2022-09-28T16:18:31.834Z,101748.59
2022-09-28T16:21:27.817Z,101746.03
2022-09-28T16:24:00.646Z,101733.25
2022-09-28T16:26:40.169Z,101736.91
2022-09-28T16:29:10.702Z,101727.03
2022-09-28T16:31:44.925Z,101741.25
2022-09-28T16:34:26.006Z,101733.81
2022-09-28T16:36:56.342Z,101732.69
2022-09-28T16:39:27.057Z,101710.31
2022-09-28T16:42:03.220Z,101715.94
2022-09-28T16:44:36.902Z,101705.97
2022-09-28T16:47:09.340Z,101706.31
2022-09-28T16:49:41.535Z,101701.13
2022-09-28T16:52:14.079Z,101713.47
2022-09-28T16:55:22.779Z,101708.09
2022-09-28T16:58:00.372Z,101714.16
2022-09-28T17:00:33.997Z,101702.03
2022-09-28T17:03:14.840Z,101701.19
2022-09-28T17:05:46.464Z,101698.56
2022-09-28T17:08:20.288Z,101696.22
2022-09-28T17:13:48.691Z,101692.03
2022-09-28T17:16:43.605Z,101697.22
2022-09-28T17:19:25.967Z,101688.66
2022-09-28T17:22:02.984Z,101671.34
2022-09-28T17:24:34.026Z,101678.81
2022-09-28T17:27:05.384Z,101671.75
2022-09-28T17:29:36.343Z,101671.56
2022-09-28T17:32:14.338Z,101668.88
2022-09-28T17:34:51.536Z,101664.09
2022-09-28T17:37:26.665Z,101659.09
2022-09-28T17:39:57.538Z,101665.66
2022-09-28T17:42:27.933Z,101667.22
2022-09-28T17:44:59.695Z,101656.16
2022-09-28T17:47:34.201Z,101659.13
2022-09-28T17:50:19.270Z,101664.28
2022-09-28T17:52:54.264Z,101662.19
2022-09-28T17:55:35.062Z,101664.59
2022-09-28T17:58:25.653Z,101660.84
2022-09-28T18:00:56.931Z,101662.78
2022-09-28T18:03:27.564Z,101667.50
2022-09-28T18:06:07.923Z,101662.28
2022-09-28T18:08:39.375Z,101670.75
2022-09-28T18:11:10.647Z,101668.06
2022-09-28T18:13:41.743Z,101677.59
2022-09-28T18:16:12.642Z,101681.66
2022-09-28T18:18:43.327Z,101685.56
2022-09-28T18:21:14.248Z,101678.69
2022-09-28T18:23:44.658Z,101676.59
2022-09-28T18:26:17.036Z,101679.00
2022-09-28T18:28:47.730Z,101676.34
2022-09-28T18:31:20.209Z,101677.69
2022-09-28T18:33:50.765Z,101694.00
2022-09-28T18:36:21.515Z,101681.56
2022-09-28T18:38:52.046Z,101676.97
2022-09-28T18:41:22.761Z,101676.84
2022-09-28T18:43:53.302Z,101672.69
2022-09-28T18:46:27.889Z,101668.78
2022-09-28T18:48:58.939Z,101678.13
2022-09-28T18:51:29.682Z,101690.31
2022-09-28T18:54:00.123Z,101680.66
2022-09-28T18:56:30.810Z,101683.38
2022-09-28T18:59:01.221Z,101667.53
2022-09-28T19:01:32.222Z,101662.41
2022-09-28T19:04:07.303Z,101653.81
2022-09-28T19:06:42.668Z,101660.31
2022-09-28T19:09:13.554Z,101655.44
2022-09-28T19:11:44.507Z,101648.00
2022-09-28T19:14:16.882Z,101649.25
2022-09-28T19:16:47.994Z,101653.97
2022-09-28T19:19:21.955Z,101660.13
2022-09-28T19:21:52.841Z,101671.75
2022-09-28T19:24:23.379Z,101667.78
2022-09-28T19:26:57.762Z,101662.84
2022-09-28T19:29:28.281Z,101642.59
2022-09-28T19:31:59.284Z,101640.81
2022-09-28T19:34:31.139Z,101646.47
2022-09-28T19:37:04.965Z,101660.34
2022-09-28T19:39:35.720Z,101657.88
2022-09-28T19:42:06.455Z,101648.63
2022-09-28T19:44:36.906Z,101658.94
2022-09-28T19:47:10.194Z,101665.28
2022-09-28T19:49:41.923Z,101667.22
2022-09-28T19:52:17.420Z,101657.16
2022-09-28T19:54:57.703Z,101675.88
2022-09-28T19:57:30.937Z,101682.75
2022-09-28T20:00:03.195Z,101670.22
2022-09-28T20:02:37.593Z,101674.03
2022-09-28T20:05:11.392Z,101670.75
2022-09-28T20:07:41.972Z,101674.91
2022-09-28T20:10:13.086Z,101675.59
2022-09-28T20:12:43.650Z,101695.63
2022-09-28T20:15:13.766Z,101687.38
2022-09-28T20:17:44.311Z,101684.47
2022-09-28T20:20:17.795Z,101682.09
2022-09-28T20:22:48.540Z,101675.38
2022-09-28T20:25:19.342Z,101688.50
2022-09-28T20:27:50.209Z,101689.50
2022-09-28T20:30:20.350Z,101686.44
2022-09-28T20:32:50.975Z,101690.13
2022-09-28T20:35:32.321Z,101688.00
2022-09-28T20:38:10.114Z,101701.31
2022-09-28T20:40:42.114Z,101703.31
2022-09-28T20:43:12.858Z,101699.63
2022-09-28T20:45:43.037Z,101700.31
2022-09-28T20:48:13.872Z,101706.34
2022-09-28T20:50:44.324Z,101715.44
2022-09-28T20:53:14.886Z,101710.50
2022-09-28T20:55:45.393Z,101727.75
2022-09-28T20:58:15.328Z,101738.03
2022-09-28T21:00:45.415Z,101733.47
2022-09-28T21:03:19.227Z,101739.81
2022-09-28T21:05:52.754Z,101743.97
2022-09-28T21:08:24.939Z,101750.44
2022-09-28T21:10:55.610Z,101748.19
2022-09-28T21:13:27.905Z,101738.66
2022-09-28T21:16:03.348Z,101736.69
2022-09-28T21:18:34.026Z,101750.28
2022-09-28T21:21:06.382Z,101751.25
2022-09-28T21:23:37.697Z,101758.75
2022-09-28T21:26:12.910Z,101766.59
2022-09-28T21:28:45.805Z,101757.03
2022-09-28T21:31:16.245Z,101759.63
2022-09-28T21:33:47.079Z,101761.88
2022-09-28T21:36:17.247Z,101764.66
2022-09-28T21:38:48.891Z,101749.66
2022-09-28T21:41:19.154Z,101779.53
2022-09-28T21:43:49.681Z,101777.19
2022-09-28T21:46:20.127Z,101787.44
2022-09-28T21:48:54.862Z,101783.88
2022-09-28T21:51:25.641Z,101802.13
2022-09-28T21:53:56.279Z,101806.41
2022-09-28T21:56:27.939Z,101807.75
2022-09-28T21:59:01.492Z,101807.97
2022-09-28T22:01:32.537Z,101823.88
2022-09-28T22:04:03.311Z,101828.50
2022-09-28T22:06:32.913Z,101827.19
2022-09-28T22:09:02.727Z,101824.69
2022-09-28T22:11:33.403Z,101813.22
2022-09-28T22:14:03.139Z,101837.22
2022-09-28T22:16:33.188Z,101846.34
2022-09-28T22:19:03.860Z,101846.16
2022-09-28T22:21:35.735Z,101854.06
2022-09-28T22:24:08.239Z,101852.34
2022-09-28T22:26:40.511Z,101869.22
2022-09-28T22:29:13.943Z,101854.59
2022-09-28T22:31:44.166Z,101862.97
2022-09-28T22:34:15.709Z,101870.19
2022-09-28T22:36:45.900Z,101861.38
2022-09-28T22:39:16.550Z,101867.88
2022-09-28T22:41:47.207Z,101870.91
2022-09-28T22:44:18.107Z,101875.28
2022-09-28T22:46:48.523Z,101873.91
2022-09-28T22:49:20.310Z,101870.63
2022-09-28T22:51:50.475Z,101859.41
2022-09-28T22:54:22.713Z,101871.53
2022-09-28T22:56:53.154Z,101872.41
2022-09-28T22:59:23.754Z,101880.19
2022-09-28T23:01:54.436Z,101879.00
2022-09-28T23:04:25.094Z,101881.69
2022-09-28T23:06:55.947Z,101890.94
2022-09-28T23:09:26.218Z,101868.69
2022-09-28T23:11:56.942Z,101888.56
2022-09-28T23:14:26.562Z,101887.63
2022-09-28T23:16:56.970Z,101883.16
2022-09-28T23:19:27.179Z,101887.03
2022-09-28T23:21:59.728Z,101889.72
2022-09-28T23:24:32.867Z,101883.75
2022-09-28T23:27:09.006Z,101882.22
2022-09-28T23:29:50.087Z,101870.56
2022-09-28T23:32:23.398Z,101875.66
2022-09-28T23:34:53.698Z,101857.38
2022-09-28T23:37:27.729Z,101864.75
2022-09-28T23:39:57.974Z,101871.72
2022-09-28T23:42:28.763Z,101865.75
2022-09-28T23:45:01.481Z,101864.53
2022-09-28T23:47:33.207Z,101876.91
2022-09-28T23:50:04.666Z,101861.41
2022-09-28T23:52:36.407Z,101864.22
2022-09-28T23:55:07.224Z,101863.63
2022-09-28T23:57:43.823Z,101867.66
